createdAt,value
2019-04-22T00:02:18.781Z,2.98
2019-04-22T00:04:58.982Z,3.30
2019-04-22T00:07:36.862Z,3.27
2019-04-22T00:12:42.061Z,2.95
2019-04-22T00:14:59.969Z,3.00
2019-04-22T00:17:38.681Z,3.37
2019-04-22T00:20:04.666Z,3.02
2019-04-22T00:22:32.043Z,2.77
2019-04-22T00:25:00.083Z,3.62
2019-04-22T00:27:34.153Z,3.02
2019-04-22T00:30:09.151Z,3.33
2019-04-22T00:32:39.649Z,3.25
2019-04-22T00:35:02.265Z,2.92
2019-04-22T00:37:37.933Z,3.27
2019-04-22T00:40:04.220Z,3.58
2019-04-22T00:42:36.324Z,3.15
2019-04-22T00:45:04.988Z,2.90
2019-04-22T00:47:29.067Z,2.90
2019-04-22T00:50:12.661Z,3.02
2019-04-22T00:52:22.270Z,3.20
2019-04-22T00:54:57.217Z,2.98
2019-04-22T00:57:21.642Z,3.27
2019-04-22T01:02:20.197Z,3.15
2019-04-22T01:04:49.024Z,3.12
2019-04-22T01:07:11.858Z,3.30
2019-04-22T01:09:46.410Z,3.17
2019-04-22T01:12:15.569Z,3.00
2019-04-22T01:14:35.589Z,3.30
2019-04-22T01:17:09.671Z,3.20
2019-04-22T01:19:43.856Z,3.22
2019-04-22T01:22:06.130Z,3.10
2019-04-22T01:24:32.610Z,3.10
2019-04-22T01:26:56.386Z,3.33
2019-04-22T01:29:19.687Z,3.50
2019-04-22T01:31:38.278Z,3.30
2019-04-22T01:34:22.282Z,3.00
2019-04-22T01:36:53.059Z,3.17
2019-04-22T01:39:23.324Z,3.22
2019-04-22T01:44:29.704Z,3.25
2019-04-22T01:46:50.633Z,3.30
2019-04-22T01:49:21.404Z,3.12
2019-04-22T01:54:23.637Z,3.12
2019-04-22T01:56:47.071Z,3.40
2019-04-22T01:59:06.278Z,3.15
2019-04-22T02:01:45.117Z,3.15
2019-04-22T02:04:08.945Z,3.02
2019-04-22T02:06:37.094Z,2.95
2019-04-22T02:09:09.500Z,3.12
2019-04-22T02:11:39.094Z,3.30
2019-04-22T02:14:05.079Z,3.20
2019-04-22T02:16:39.051Z,2.98
2019-04-22T02:19:02.640Z,3.15
2019-04-22T02:21:21.587Z,3.02
2019-04-22T02:24:00.331Z,2.85
2019-04-22T02:26:27.649Z,3.50
2019-04-22T02:28:47.662Z,3.27
2019-04-22T02:44:01.321Z,2.95
2019-04-22T02:51:16.364Z,2.95
2019-04-22T02:56:25.759Z,3.15
2019-04-22T02:58:56.558Z,2.70
2019-04-22T03:01:14.333Z,2.90
2019-04-22T03:08:39.406Z,3.08
2019-04-22T03:11:04.106Z,3.15
2019-04-22T03:13:38.274Z,2.72
2019-04-22T03:16:17.799Z,2.83
2019-04-22T03:18:33.536Z,3.02
2019-04-22T03:20:58.511Z,3.15
2019-04-22T03:23:36.524Z,3.05
2019-04-22T03:28:27.352Z,3.12
2019-04-22T03:34:01.649Z,2.85
2019-04-22T03:36:49.210Z,2.90
2019-04-22T03:38:55.682Z,2.80
2019-04-22T03:41:19.406Z,3.00
2019-04-22T03:43:43.751Z,3.20
2019-04-22T03:46:02.006Z,3.30
2019-04-22T03:48:38.449Z,3.10
2019-04-22T03:51:08.000Z,3.20
2019-04-22T03:53:33.528Z,3.25
2019-04-22T03:58:26.226Z,2.92
2019-04-22T04:00:55.819Z,2.92
2019-04-22T04:06:00.297Z,3.12
2019-04-22T04:08:20.175Z,2.72
2019-04-22T04:15:34.348Z,2.80
2019-04-22T04:18:29.554Z,3.20
2019-04-22T04:20:44.761Z,3.30
2019-04-22T04:25:42.730Z,2.92
2019-04-22T04:35:47.972Z,3.22
2019-04-22T04:37:55.297Z,3.08
2019-04-22T04:42:54.412Z,2.52
2019-04-22T04:47:57.919Z,2.70
2019-04-22T04:53:02.579Z,2.90
2019-04-22T04:55:28.531Z,2.72
2019-04-22T05:02:44.885Z,3.10
2019-04-22T05:05:14.440Z,3.30
2019-04-22T05:07:40.546Z,2.40
2019-04-22T05:10:11.663Z,2.90
2019-04-22T05:15:09.187Z,2.42
2019-04-22T05:17:41.222Z,2.70
2019-04-22T05:22:27.973Z,2.90
2019-04-22T05:24:53.366Z,2.98
2019-04-22T05:30:08.827Z,3.05
2019-04-22T05:32:17.526Z,2.90
2019-04-22T05:34:48.618Z,2.80
2019-04-22T05:37:14.783Z,2.90
2019-04-22T05:39:40.977Z,2.72
2019-04-22T05:42:10.504Z,2.92
2019-04-22T05:44:41.113Z,3.05
2019-04-22T05:47:02.671Z,2.80
2019-04-22T05:49:29.954Z,2.95
2019-04-22T05:51:54.651Z,2.67
2019-04-22T05:54:28.971Z,2.77
2019-04-22T05:56:58.673Z,2.72
2019-04-22T05:59:28.194Z,3.02
2019-04-22T06:04:25.696Z,2.33
2019-04-22T06:06:46.695Z,2.60
2019-04-22T06:11:51.006Z,2.58
2019-04-22T06:14:15.262Z,2.60
2019-04-22T06:16:50.329Z,2.62
2019-04-22T06:19:21.180Z,2.80
2019-04-22T06:22:09.650Z,2.72
2019-04-22T06:26:54.417Z,2.70
2019-04-22T06:29:16.555Z,2.92
2019-04-22T06:32:03.424Z,3.15
2019-04-22T06:39:10.450Z,3.02
2019-04-22T06:41:38.796Z,2.75
2019-04-22T06:44:04.835Z,2.65
2019-04-22T06:49:03.594Z,3.12
2019-04-22T06:51:27.009Z,2.90
2019-04-22T06:53:53.713Z,2.92
2019-04-22T06:56:22.386Z,2.52
2019-04-22T06:58:52.367Z,2.50
2019-04-22T07:01:38.859Z,2.80
2019-04-22T07:03:53.656Z,3.00
2019-04-22T07:06:26.179Z,2.42
2019-04-22T07:11:06.368Z,2.70
2019-04-22T07:16:04.039Z,2.90
2019-04-22T07:18:37.242Z,2.95
2019-04-22T07:23:37.406Z,2.87
2019-04-22T07:25:58.670Z,2.80
2019-04-22T07:28:22.965Z,2.83
2019-04-22T07:30:59.149Z,2.72
2019-04-22T07:36:19.533Z,2.70
2019-04-22T07:38:26.663Z,2.60
2019-04-22T07:40:51.212Z,2.98
2019-04-22T07:43:32.483Z,2.90
2019-04-22T07:45:48.930Z,2.37
2019-04-22T07:48:26.194Z,2.65
2019-04-22T07:50:56.255Z,2.85
2019-04-22T07:53:11.740Z,2.80
2019-04-22T07:55:39.859Z,2.72
2019-04-22T07:58:16.983Z,2.70
2019-04-22T08:00:39.028Z,2.62
2019-04-22T08:03:14.541Z,2.58
2019-04-22T08:05:47.668Z,2.87
2019-04-22T08:08:09.559Z,2.83
2019-04-22T08:10:40.385Z,3.17
2019-04-22T08:13:07.357Z,2.80
2019-04-22T08:15:32.946Z,2.62
2019-04-22T08:20:36.923Z,2.70
2019-04-22T08:23:04.754Z,3.70
2019-04-22T08:25:33.426Z,2.65
2019-04-22T08:27:57.197Z,3.40
2019-04-22T08:30:30.370Z,2.67
2019-04-22T08:32:57.057Z,2.90
2019-04-22T08:35:29.277Z,3.05
2019-04-22T08:37:51.266Z,3.20
2019-04-22T08:40:21.053Z,2.80
2019-04-22T08:42:55.274Z,3.20
2019-04-22T08:45:18.852Z,3.25
2019-04-22T08:47:44.300Z,3.30
2019-04-22T08:52:40.667Z,3.10
2019-04-22T08:55:11.186Z,3.27
2019-04-22T08:57:46.894Z,3.10
2019-04-22T09:00:02.836Z,3.10
2019-04-22T09:02:33.704Z,3.33
2019-04-22T09:05:03.383Z,3.08
2019-04-22T09:09:55.783Z,2.80
2019-04-22T09:12:37.080Z,3.37
2019-04-22T09:17:19.992Z,3.22
2019-04-22T09:19:47.788Z,3.25
2019-04-22T09:22:22.109Z,3.08
2019-04-22T09:24:48.315Z,3.37
2019-04-22T09:27:19.160Z,2.90
2019-04-22T09:29:42.948Z,3.10
2019-04-22T09:32:14.818Z,2.90
2019-04-22T09:34:41.958Z,3.22
2019-04-22T09:37:17.674Z,3.27
2019-04-22T09:42:04.968Z,3.15
2019-04-22T09:44:36.204Z,3.00
2019-04-22T09:46:59.934Z,3.08
2019-04-22T09:49:38.407Z,2.62
2019-04-22T09:52:00.081Z,2.95
2019-04-22T09:54:29.741Z,3.05
2019-04-22T09:56:55.353Z,2.60
2019-04-22T09:59:20.182Z,2.70
2019-04-22T10:01:59.386Z,3.17
2019-04-22T10:04:14.343Z,2.98
2019-04-22T10:06:40.389Z,3.15
2019-04-22T10:09:34.356Z,2.80
2019-04-22T10:11:56.325Z,2.77
2019-04-22T10:14:14.152Z,2.83
2019-04-22T10:16:44.927Z,3.15
2019-04-22T10:24:03.309Z,3.10
2019-04-22T10:26:39.167Z,2.50
2019-04-22T10:29:09.074Z,3.22
2019-04-22T10:31:36.970Z,3.20
2019-04-22T10:33:49.513Z,3.40
2019-04-22T10:36:01.522Z,3.10
2019-04-22T10:38:28.383Z,3.60
2019-04-22T10:40:54.797Z,2.70
2019-04-22T10:43:21.421Z,2.90
2019-04-22T10:45:48.137Z,3.08
2019-04-22T10:48:14.659Z,3.55
2019-04-22T10:50:43.241Z,3.33
2019-04-22T10:53:11.190Z,4.05
2019-04-22T10:55:40.461Z,3.52
2019-04-22T10:58:06.789Z,4.00
2019-04-22T11:00:33.620Z,3.45
2019-04-22T11:03:02.406Z,4.35
2019-04-22T11:05:30.251Z,3.87
2019-04-22T11:08:01.173Z,4.15
2019-04-22T11:10:36.952Z,3.83
2019-04-22T11:12:54.593Z,4.00
2019-04-22T11:15:22.278Z,3.55
2019-04-22T11:17:49.518Z,3.92
2019-04-22T11:20:17.644Z,3.60
2019-04-22T11:22:44.653Z,3.67
2019-04-22T11:25:11.931Z,3.92
2019-04-22T11:27:39.046Z,3.87
2019-04-22T11:30:06.098Z,4.00
2019-04-22T11:32:32.789Z,3.77
2019-04-22T11:34:59.295Z,3.40
2019-04-22T11:37:25.750Z,3.85
2019-04-22T11:40:04.875Z,4.03
2019-04-22T11:42:20.663Z,3.77
2019-04-22T11:44:47.522Z,3.47
2019-04-22T11:47:15.152Z,3.60
2019-04-22T11:49:41.752Z,3.33
2019-04-22T11:52:10.743Z,3.30
2019-04-22T11:54:36.985Z,3.00
2019-04-22T11:57:05.319Z,2.83
2019-04-22T11:59:32.993Z,2.95
2019-04-22T12:02:00.564Z,3.17
2019-04-22T12:04:27.647Z,2.95
2019-04-22T12:06:54.137Z,2.50
2019-04-22T12:09:21.538Z,2.70
2019-04-22T12:11:49.406Z,2.60
2019-04-22T12:14:16.005Z,2.62
2019-04-22T12:16:43.623Z,2.60
2019-04-22T12:19:11.335Z,2.60
2019-04-22T12:21:39.205Z,2.67
2019-04-22T12:24:05.724Z,2.45
2019-04-22T12:26:32.610Z,2.75
2019-04-22T12:28:59.298Z,2.75
2019-04-22T12:31:27.169Z,2.45
2019-04-22T12:33:54.997Z,2.98
2019-04-22T12:36:22.591Z,2.50
2019-04-22T12:38:49.343Z,2.37
2019-04-22T12:41:16.562Z,2.70
2019-04-22T12:43:45.093Z,2.80
2019-04-22T12:46:12.154Z,2.90
2019-04-22T12:48:39.267Z,2.47
2019-04-22T12:51:06.947Z,2.55
2019-04-22T12:53:33.920Z,2.45
2019-04-22T12:56:01.283Z,2.50
2019-04-22T12:58:27.757Z,2.58
2019-04-22T13:00:54.593Z,2.47
2019-04-22T13:03:22.298Z,2.52
2019-04-22T13:05:49.493Z,2.72
2019-04-22T13:08:15.998Z,2.62
2019-04-22T13:10:53.405Z,2.80
2019-04-22T13:13:11.274Z,2.67
2019-04-22T13:15:39.118Z,3.10
2019-04-22T13:18:13.554Z,3.00
2019-04-22T13:20:34.550Z,2.98
2019-04-22T13:23:02.090Z,2.95
2019-04-22T13:25:31.888Z,3.12
2019-04-22T13:27:57.570Z,3.00
2019-04-22T13:30:26.183Z,3.00
2019-04-22T13:32:52.756Z,2.72
2019-04-22T13:35:20.203Z,2.70
2019-04-22T13:37:48.766Z,3.22
2019-04-22T13:40:16.680Z,2.72
2019-04-22T13:42:44.775Z,2.72
2019-04-22T13:45:11.802Z,2.98
2019-04-22T13:47:54.698Z,2.75
2019-04-22T13:51:36.170Z,3.05
2019-04-22T13:53:18.437Z,2.83
2019-04-22T13:55:43.717Z,2.72
2019-04-22T13:57:53.882Z,3.02
2019-04-22T14:00:14.319Z,3.10
2019-04-22T14:02:52.695Z,3.60
2019-04-22T14:05:22.444Z,3.60
2019-04-22T14:07:51.679Z,4.12
2019-04-22T14:10:18.355Z,3.50
2019-04-22T14:12:46.692Z,3.65
2019-04-22T14:15:14.056Z,3.20
2019-04-22T14:17:40.986Z,3.50
2019-04-22T14:20:09.020Z,3.58
2019-04-22T14:22:36.579Z,3.52
2019-04-22T14:25:05.042Z,3.70
2019-04-22T14:27:40.717Z,3.42
2019-04-22T14:29:59.964Z,3.52
2019-04-22T14:34:55.313Z,3.60
2019-04-22T14:37:22.341Z,3.77
2019-04-22T14:39:48.922Z,3.83
2019-04-22T14:42:36.509Z,4.50
2019-04-22T14:44:12.632Z,3.62
2019-04-22T14:45:20.488Z,4.00
2019-04-22T14:47:32.780Z,4.08
2019-04-22T14:50:02.791Z,4.30
2019-04-22T14:52:39.521Z,3.85
2019-04-22T14:54:50.832Z,3.95
2019-04-22T14:57:05.249Z,4.22
2019-04-22T14:59:32.592Z,4.35
2019-04-22T15:02:01.349Z,4.12
2019-04-22T15:04:28.937Z,3.90
2019-04-22T15:06:55.286Z,3.92
2019-04-22T15:09:21.863Z,3.92
2019-04-22T15:12:00.793Z,4.33
2019-04-22T15:14:17.223Z,4.15
2019-04-22T15:16:46.943Z,4.17
2019-04-22T15:19:18.238Z,4.20
2019-04-22T15:21:45.093Z,4.08
2019-04-22T15:24:22.967Z,3.92
2019-04-22T15:26:50.603Z,3.90
2019-04-22T15:29:17.571Z,4.20
2019-04-22T15:31:45.101Z,3.90
2019-04-22T15:34:12.368Z,3.90
2019-04-22T15:36:39.966Z,3.95
2019-04-22T15:39:07.472Z,4.05
2019-04-22T15:41:34.668Z,3.30
2019-04-22T15:44:01.834Z,3.90
2019-04-22T15:46:29.719Z,3.40
2019-04-22T15:48:56.213Z,3.40
2019-04-22T15:51:24.654Z,3.02
2019-04-22T15:53:51.908Z,3.45
2019-04-22T15:56:18.776Z,3.52
2019-04-22T15:58:46.081Z,2.87
2019-04-22T16:01:21.390Z,3.50
2019-04-22T16:03:40.897Z,3.17
2019-04-22T16:06:08.308Z,3.00
2019-04-22T16:08:37.288Z,3.02
2019-04-22T16:11:04.069Z,3.10
2019-04-22T16:13:34.037Z,2.98
2019-04-22T16:15:58.827Z,3.05
2019-04-22T16:18:26.489Z,3.30
2019-04-22T16:20:54.304Z,3.30
2019-04-22T16:23:25.692Z,3.08
2019-04-22T16:25:53.560Z,3.47
2019-04-22T16:28:21.502Z,2.87
2019-04-22T16:30:48.944Z,3.45
2019-04-22T16:33:15.540Z,3.37
2019-04-22T16:35:42.658Z,3.10
2019-04-22T16:38:10.752Z,3.67
2019-04-22T16:40:38.754Z,3.50
2019-04-22T16:43:07.742Z,3.12
2019-04-22T16:45:33.653Z,3.55
2019-04-22T16:48:00.092Z,3.10
2019-04-22T16:50:27.302Z,3.83
2019-04-22T16:52:54.413Z,4.17
2019-04-22T16:55:21.170Z,3.60
2019-04-22T16:57:48.221Z,3.58
2019-04-22T17:00:18.179Z,3.75
2019-04-22T17:02:58.715Z,3.62
2019-04-22T17:05:29.953Z,4.25
2019-04-22T17:07:56.455Z,4.05
2019-04-22T17:10:23.775Z,4.03
2019-04-22T17:12:59.576Z,3.90
2019-04-22T17:15:20.257Z,4.08
2019-04-22T17:17:47.381Z,4.28
2019-04-22T17:20:15.304Z,4.12
2019-04-22T17:22:42.006Z,4.20
2019-04-22T17:25:08.746Z,4.30
2019-04-22T17:27:35.212Z,4.42
2019-04-22T17:30:04.233Z,4.65
2019-04-22T17:32:31.719Z,4.70
2019-04-22T17:34:59.325Z,5.03
2019-04-22T17:37:28.492Z,4.20
2019-04-22T17:40:09.764Z,4.70
2019-04-22T17:42:42.330Z,4.40
2019-04-22T17:45:22.037Z,4.22
2019-04-22T17:48:09.368Z,4.78
2019-04-22T17:50:39.992Z,4.45
2019-04-22T17:53:17.008Z,4.80
2019-04-22T17:55:46.790Z,4.53
2019-04-22T17:57:59.552Z,5.03
2019-04-22T18:00:28.193Z,5.33
2019-04-22T18:02:52.056Z,4.83
2019-04-22T18:05:11.465Z,4.87
2019-04-22T18:07:55.936Z,5.37
2019-04-22T18:13:01.984Z,5.15
2019-04-22T18:15:17.771Z,5.00
2019-04-22T18:17:57.011Z,5.05
2019-04-22T18:20:13.030Z,4.55
2019-04-22T18:22:39.687Z,4.83
2019-04-22T18:25:10.665Z,5.05
2019-04-22T18:30:04.084Z,5.30
2019-04-22T18:32:38.059Z,5.05
2019-04-22T18:35:06.304Z,5.78
2019-04-22T18:37:36.062Z,5.55
2019-04-22T18:40:02.150Z,5.45
2019-04-22T18:42:26.783Z,5.45
2019-04-22T18:45:12.801Z,5.08
2019-04-22T18:47:28.092Z,5.58
2019-04-22T18:49:49.390Z,5.50
2019-04-22T18:52:41.731Z,5.42
2019-04-22T18:55:08.531Z,5.50
2019-04-22T18:57:44.893Z,5.78
2019-04-22T19:00:09.061Z,5.55
2019-04-22T19:02:37.620Z,5.50
2019-04-22T19:05:17.836Z,5.95
2019-04-22T19:07:59.176Z,5.67
2019-04-22T19:10:39.383Z,6.08
2019-04-22T19:13:17.437Z,5.85
2019-04-22T19:15:29.886Z,6.08
2019-04-22T19:18:02.168Z,5.65
2019-04-22T19:20:23.802Z,6.10
2019-04-22T19:22:53.510Z,6.03
2019-04-22T19:25:15.178Z,6.15
2019-04-22T19:27:40.425Z,6.50
2019-04-22T19:30:15.981Z,5.67
2019-04-22T19:32:43.107Z,6.03
2019-04-22T19:35:09.406Z,6.05
2019-04-22T19:37:33.110Z,5.85
2019-04-22T19:45:04.492Z,6.00
2019-04-22T19:47:53.533Z,6.72
2019-04-22T19:50:05.961Z,6.08
2019-04-22T19:52:30.291Z,6.45
2019-04-22T19:55:01.144Z,6.30
2019-04-22T19:57:22.230Z,5.90
2019-04-22T19:59:56.261Z,6.65
2019-04-22T20:02:25.254Z,6.70
2019-04-22T20:04:59.599Z,6.45
2019-04-22T20:07:31.260Z,6.80
2019-04-22T20:09:57.229Z,7.25
2019-04-22T20:12:23.561Z,6.50
2019-04-22T20:14:57.775Z,6.60
2019-04-22T20:17:28.935Z,6.60
2019-04-22T20:20:14.382Z,6.58
2019-04-22T20:22:32.987Z,6.22
2019-04-22T20:24:53.834Z,6.42
2019-04-22T20:27:36.332Z,7.37
2019-04-22T20:30:04.593Z,6.97
2019-04-22T20:32:26.524Z,7.12
2019-04-22T20:35:06.033Z,6.33
2019-04-22T20:37:50.929Z,6.60
2019-04-22T20:39:57.214Z,6.78
2019-04-22T20:42:36.692Z,6.78
2019-04-22T20:44:57.376Z,6.90
2019-04-22T20:47:21.734Z,6.45
2019-04-22T20:50:04.520Z,6.42
2019-04-22T20:54:55.703Z,6.78
2019-04-22T20:57:33.275Z,7.17
2019-04-22T20:59:52.208Z,6.85
2019-04-22T21:02:18.005Z,6.83
2019-04-22T21:04:41.094Z,7.37
2019-04-22T21:07:15.060Z,6.75
2019-04-22T21:09:49.205Z,6.55
2019-04-22T21:12:14.506Z,6.95
2019-04-22T21:14:53.218Z,6.90
2019-04-22T21:17:13.676Z,7.08
2019-04-22T21:19:47.995Z,6.75
2019-04-22T21:22:14.648Z,7.28
2019-04-22T21:24:36.065Z,7.35
2019-04-22T21:27:10.152Z,7.15
2019-04-22T21:29:30.699Z,7.15
2019-04-22T21:32:01.082Z,6.85
2019-04-22T21:34:32.307Z,6.92
2019-04-22T21:37:05.727Z,7.05
2019-04-22T21:39:26.332Z,7.33
2019-04-22T21:41:54.394Z,7.20
2019-04-22T21:44:24.749Z,7.17
2019-04-22T21:46:57.414Z,6.67
2019-04-22T21:49:25.154Z,7.78
2019-04-22T21:51:53.831Z,6.62
2019-04-22T21:54:23.291Z,7.22
2019-04-22T21:57:09.134Z,6.75
2019-04-22T21:59:28.817Z,7.00
2019-04-22T22:04:20.477Z,7.03
2019-04-22T22:06:42.543Z,7.10
2019-04-22T22:09:22.519Z,7.15
2019-04-22T22:11:44.500Z,7.10
2019-04-22T22:14:11.684Z,7.35
2019-04-22T22:16:34.809Z,7.70
2019-04-22T22:19:11.126Z,7.33
2019-04-22T22:21:49.217Z,7.45
2019-04-22T22:24:13.207Z,6.70
2019-04-22T22:26:40.560Z,7.20
2019-04-22T22:29:08.873Z,7.10
2019-04-22T22:34:01.861Z,6.75
2019-04-22T22:36:26.443Z,7.50
2019-04-22T22:38:51.685Z,7.00
2019-04-22T22:41:05.792Z,7.62
2019-04-22T22:43:39.075Z,7.17
2019-04-22T22:46:11.927Z,7.03
2019-04-22T22:48:51.386Z,7.62
2019-04-22T22:51:15.211Z,6.78
2019-04-22T22:53:57.033Z,7.83
2019-04-22T22:56:13.919Z,7.87
2019-04-22T22:58:41.215Z,7.55
2019-04-22T23:01:04.186Z,7.25
2019-04-22T23:03:51.511Z,7.08
2019-04-22T23:06:13.380Z,7.70
2019-04-22T23:08:49.474Z,7.65
2019-04-22T23:11:06.476Z,7.62
2019-04-22T23:13:40.432Z,7.70
2019-04-22T23:15:50.209Z,8.00
2019-04-22T23:18:07.852Z,7.22
2019-04-22T23:20:38.237Z,7.35
2019-04-22T23:23:21.997Z,7.78
2019-04-22T23:25:56.668Z,7.80
2019-04-22T23:28:17.485Z,7.90
2019-04-22T23:30:57.802Z,7.45
2019-04-22T23:33:37.463Z,7.33
2019-04-22T23:36:06.381Z,7.72
2019-04-22T23:38:47.683Z,8.23
2019-04-22T23:41:39.452Z,7.70
2019-04-22T23:44:07.904Z,7.72
2019-04-22T23:46:21.567Z,7.65
2019-04-22T23:48:51.553Z,7.33
2019-04-22T23:51:23.778Z,7.87
2019-04-22T23:54:00.893Z,7.80
2019-04-22T23:56:15.176Z,8.25
